createdAt,value
2017-06-02T00:01:47.593Z,3.90
2017-06-02T00:04:16.466Z,4.48
2017-06-02T00:06:45.309Z,3.88
2017-06-02T00:09:14.294Z,3.94
2017-06-02T00:11:43.192Z,4.00
2017-06-02T00:14:12.034Z,3.88
2017-06-02T00:16:40.886Z,4.26
2017-06-02T00:19:09.776Z,4.82
2017-06-02T00:21:38.640Z,4.36
2017-06-02T00:24:07.487Z,4.42
2017-06-02T00:26:36.472Z,4.42
2017-06-02T00:29:05.361Z,4.20
2017-06-02T00:31:33.446Z,4.14
2017-06-02T00:34:02.305Z,4.70
2017-06-02T00:36:31.216Z,4.12
2017-06-02T00:39:00.068Z,4.26
2017-06-02T00:41:28.936Z,4.48
2017-06-02T00:43:57.810Z,4.64
2017-06-02T00:46:26.657Z,4.22
2017-06-02T00:48:55.509Z,4.78
2017-06-02T00:51:24.383Z,4.22
2017-06-02T00:53:53.242Z,4.22
2017-06-02T00:56:22.245Z,4.28
2017-06-02T00:58:51.101Z,4.30
2017-06-02T01:01:19.949Z,4.78
2017-06-02T01:03:48.835Z,4.10
2017-06-02T01:06:17.680Z,4.82
2017-06-02T01:08:46.529Z,4.50
2017-06-02T01:11:15.420Z,4.30
2017-06-02T01:13:44.275Z,4.90
2017-06-02T01:16:13.126Z,4.52
2017-06-02T01:18:43.445Z,4.92
2017-06-02T01:21:12.293Z,4.68
2017-06-02T01:23:41.159Z,4.82
2017-06-02T01:26:10.042Z,5.00
2017-06-02T01:28:38.893Z,4.70
2017-06-02T01:31:07.745Z,4.92
2017-06-02T01:33:44.631Z,5.32
2017-06-02T01:36:13.580Z,4.80
2017-06-02T01:38:42.461Z,4.80
2017-06-02T01:41:11.343Z,4.70
2017-06-02T01:43:40.200Z,4.76
2017-06-02T01:46:09.058Z,5.26
2017-06-02T01:48:38.063Z,4.74
2017-06-02T01:51:06.926Z,4.78
2017-06-02T01:53:35.763Z,5.04
2017-06-02T01:56:04.745Z,4.88
2017-06-02T01:58:33.629Z,4.66
2017-06-02T02:01:01.726Z,4.80
2017-06-02T02:03:30.581Z,5.52
2017-06-02T02:05:59.453Z,4.62
2017-06-02T02:08:28.304Z,4.86
2017-06-02T02:10:57.305Z,4.56
2017-06-02T02:13:26.156Z,4.62
2017-06-02T02:15:55.007Z,5.18
2017-06-02T02:18:25.113Z,4.50
2017-06-02T02:20:53.960Z,4.82
2017-06-02T02:23:22.808Z,4.86
2017-06-02T02:25:50.932Z,4.98
2017-06-02T02:28:19.788Z,4.38
2017-06-02T02:30:48.633Z,5.12
2017-06-02T02:33:17.636Z,4.84
2017-06-02T02:35:46.497Z,5.06
2017-06-02T02:38:15.349Z,4.62
2017-06-02T02:40:44.227Z,4.60
2017-06-02T02:43:13.076Z,4.06
2017-06-02T02:45:42.081Z,4.88
2017-06-02T02:48:10.969Z,4.90
2017-06-02T02:50:39.820Z,4.42
2017-06-02T02:53:08.681Z,4.80
2017-06-02T02:55:37.567Z,4.68
2017-06-02T02:58:06.428Z,4.28
2017-06-02T03:00:35.284Z,4.98
2017-06-02T03:03:04.273Z,5.08
2017-06-02T03:05:33.129Z,4.72
2017-06-02T03:08:02.003Z,4.54
2017-06-02T03:10:30.890Z,5.26
2017-06-02T03:12:59.767Z,4.76
2017-06-02T03:15:28.613Z,4.72
2017-06-02T03:17:57.507Z,5.16
2017-06-02T03:20:26.510Z,6.26
2017-06-02T03:22:55.353Z,5.44
2017-06-02T03:25:24.208Z,5.28
2017-06-02T03:27:53.093Z,5.44
2017-06-02T03:30:21.949Z,5.60
2017-06-02T03:32:50.833Z,5.92
2017-06-02T03:35:19.683Z,5.38
2017-06-02T03:37:48.530Z,5.42
2017-06-02T03:40:17.544Z,6.04
2017-06-02T03:42:46.388Z,5.50
2017-06-02T03:45:15.252Z,5.84
2017-06-02T03:47:44.137Z,5.22
2017-06-02T03:50:12.996Z,5.68
2017-06-02T03:52:41.865Z,6.26
2017-06-02T03:55:10.722Z,5.48
2017-06-02T03:57:39.572Z,5.84
2017-06-02T04:00:08.552Z,5.56
2017-06-02T04:02:37.409Z,6.58
2017-06-02T04:05:06.293Z,5.94
2017-06-02T04:07:35.145Z,6.04
2017-06-02T04:10:03.997Z,6.32
2017-06-02T04:12:32.885Z,5.58
2017-06-02T04:15:01.732Z,7.20
2017-06-02T04:17:36.555Z,5.46
2017-06-02T04:20:05.420Z,5.24
2017-06-02T04:22:34.289Z,6.24
2017-06-02T04:25:03.139Z,5.58
2017-06-02T04:27:32.038Z,5.78
2017-06-02T04:30:00.881Z,5.50
2017-06-02T04:32:29.765Z,6.02
2017-06-02T04:34:58.621Z,5.60
2017-06-02T04:37:27.470Z,5.42
2017-06-02T04:40:03.653Z,6.16
2017-06-02T04:42:32.501Z,5.46
2017-06-02T04:45:01.358Z,5.82
2017-06-02T04:47:30.232Z,5.42
2017-06-02T04:49:59.081Z,5.38
2017-06-02T04:52:27.930Z,5.98
2017-06-02T04:54:59.495Z,5.88
2017-06-02T04:57:28.355Z,5.66
2017-06-02T04:59:58.421Z,5.70
2017-06-02T05:02:27.279Z,5.48
2017-06-02T05:04:56.140Z,5.90
2017-06-02T05:07:25.021Z,4.76
2017-06-02T05:09:53.887Z,5.70
2017-06-02T05:12:22.737Z,5.32
2017-06-02T05:14:53.307Z,6.06
2017-06-02T05:17:21.430Z,5.50
2017-06-02T05:19:50.279Z,5.64
2017-06-02T05:22:19.189Z,5.18
2017-06-02T05:24:48.069Z,5.88
2017-06-02T05:27:16.944Z,5.88
2017-06-02T05:29:45.803Z,5.64
2017-06-02T05:32:14.692Z,5.30
2017-06-02T05:34:51.302Z,5.52
2017-06-02T05:37:20.153Z,5.82
2017-06-02T05:39:49.040Z,5.46
2017-06-02T05:42:17.889Z,5.22
2017-06-02T05:44:46.749Z,5.34
2017-06-02T05:47:15.633Z,5.44
2017-06-02T05:49:44.477Z,5.88
2017-06-02T05:52:14.401Z,5.80
2017-06-02T05:54:43.257Z,5.78
2017-06-02T05:57:12.105Z,5.22
2017-06-02T05:59:40.985Z,6.32
2017-06-02T06:02:09.845Z,6.24
2017-06-02T06:04:38.701Z,6.00
2017-06-02T06:07:07.582Z,5.98
2017-06-02T06:09:36.433Z,5.40
2017-06-02T06:12:05.292Z,5.26
2017-06-02T06:14:34.173Z,5.16
2017-06-02T06:17:04.259Z,4.86
2017-06-02T06:19:33.168Z,5.66
2017-06-02T06:22:01.260Z,4.68
2017-06-02T06:24:29.357Z,5.58
2017-06-02T06:26:58.233Z,5.46
2017-06-02T06:29:27.097Z,5.24
2017-06-02T06:31:56.082Z,5.50
2017-06-02T06:34:24.931Z,5.90
2017-06-02T06:36:53.785Z,5.68
2017-06-02T06:39:22.677Z,4.96
2017-06-02T06:41:51.514Z,6.84
2017-06-02T06:44:20.398Z,5.48
2017-06-02T06:46:49.256Z,6.34
2017-06-02T06:49:18.097Z,5.16
2017-06-02T06:51:47.028Z,6.54
2017-06-02T06:54:15.881Z,5.96
2017-06-02T06:56:44.729Z,5.86
2017-06-02T06:59:13.623Z,5.62
2017-06-02T07:01:41.706Z,6.80
2017-06-02T07:04:10.562Z,5.60
2017-06-02T07:06:39.439Z,5.20
2017-06-02T07:09:08.278Z,6.36
2017-06-02T07:11:37.132Z,5.94
2017-06-02T07:14:06.077Z,5.56
2017-06-02T07:16:34.925Z,6.08
2017-06-02T07:19:05.352Z,5.72
2017-06-02T07:21:34.238Z,5.72
2017-06-02T07:24:03.085Z,5.52
2017-06-02T07:26:31.920Z,5.50
2017-06-02T07:29:08.697Z,5.88
2017-06-02T07:31:37.632Z,6.30
2017-06-02T07:34:06.520Z,6.82
2017-06-02T07:36:35.386Z,5.56
2017-06-02T07:39:04.226Z,5.40
2017-06-02T07:41:33.122Z,6.18
2017-06-02T07:44:02.015Z,5.40
2017-06-02T07:46:30.841Z,5.14
2017-06-02T07:49:07.147Z,5.78
2017-06-02T07:51:36.093Z,5.98
2017-06-02T07:54:04.972Z,5.42
2017-06-02T07:56:33.865Z,5.66
2017-06-02T07:59:02.702Z,5.26
2017-06-02T08:01:31.545Z,5.82
2017-06-02T08:04:08.477Z,5.28
2017-06-02T08:06:37.404Z,5.44
2017-06-02T08:09:06.296Z,5.80
2017-06-02T08:11:35.177Z,5.70
2017-06-02T08:14:04.017Z,5.50
2017-06-02T08:16:32.893Z,4.76
2017-06-02T08:19:13.441Z,5.40
2017-06-02T08:21:42.304Z,5.18
2017-06-02T08:24:11.156Z,5.26
2017-06-02T08:26:39.291Z,5.32
2017-06-02T08:29:08.134Z,6.14
2017-06-02T08:31:36.994Z,6.04
2017-06-02T08:34:05.871Z,5.86
2017-06-02T08:36:34.785Z,5.74
2017-06-02T08:39:03.650Z,5.66
2017-06-02T08:41:32.500Z,5.26
2017-06-02T08:44:01.387Z,5.82
2017-06-02T08:46:30.236Z,5.44
2017-06-02T08:48:59.077Z,6.16
2017-06-02T08:51:28.038Z,5.66
2017-06-02T08:53:56.860Z,5.68
2017-06-02T08:56:25.698Z,5.66
2017-06-02T08:59:01.993Z,5.74
2017-06-02T09:01:38.073Z,6.34
2017-06-02T09:04:07.064Z,6.18
2017-06-02T09:06:35.908Z,5.76
2017-06-02T09:09:04.757Z,5.82
2017-06-02T09:11:33.639Z,5.00
2017-06-02T09:14:02.485Z,6.04
2017-06-02T09:16:31.338Z,5.12
2017-06-02T09:19:01.086Z,5.80
2017-06-02T09:21:29.967Z,5.40
2017-06-02T09:23:58.805Z,5.68
2017-06-02T09:26:27.705Z,5.56
2017-06-02T09:28:56.534Z,5.94
2017-06-02T09:31:25.393Z,5.54
2017-06-02T09:33:54.275Z,5.46
2017-06-02T09:36:23.150Z,5.10
2017-06-02T09:38:52.017Z,6.04
2017-06-02T09:41:21.013Z,5.76
2017-06-02T09:43:49.865Z,4.80
2017-06-02T09:46:18.700Z,4.56
2017-06-02T09:48:47.580Z,4.74
2017-06-02T09:51:16.426Z,4.64
2017-06-02T09:53:45.309Z,4.32
2017-06-02T09:56:14.210Z,4.84
2017-06-02T09:58:50.945Z,4.70
2017-06-02T10:01:19.876Z,4.26
2017-06-02T10:03:48.746Z,4.60
2017-06-02T10:06:17.598Z,4.08
2017-06-02T10:08:46.452Z,4.38
2017-06-02T10:11:15.341Z,4.28
2017-06-02T10:13:44.186Z,3.90
2017-06-02T10:16:13.030Z,3.50
2017-06-02T10:18:43.329Z,3.56
2017-06-02T10:21:12.175Z,3.88
2017-06-02T10:23:41.029Z,4.16
2017-06-02T10:26:09.918Z,3.76
2017-06-02T10:28:38.781Z,3.40
2017-06-02T10:31:07.630Z,3.96
2017-06-02T10:33:37.329Z,3.76
2017-06-02T10:36:06.196Z,3.66
2017-06-02T10:38:35.060Z,3.78
2017-06-02T10:41:04.842Z,3.98
2017-06-02T10:43:33.685Z,3.14
2017-06-02T10:46:02.562Z,4.02
2017-06-02T10:48:31.418Z,3.78
2017-06-02T10:51:00.278Z,3.80
2017-06-02T10:53:30.893Z,3.04
2017-06-02T10:55:58.987Z,3.28
2017-06-02T10:58:27.837Z,3.58
2017-06-02T11:00:56.720Z,3.54
2017-06-02T11:03:25.572Z,3.44
2017-06-02T11:05:54.426Z,3.62
2017-06-02T11:08:23.310Z,3.70
2017-06-02T11:10:52.181Z,4.04
2017-06-02T11:13:21.039Z,4.22
2017-06-02T11:15:57.049Z,3.80
2017-06-02T11:18:25.904Z,3.46
2017-06-02T11:20:54.780Z,3.90
2017-06-02T11:23:23.651Z,3.52
2017-06-02T11:25:52.518Z,3.34
2017-06-02T11:28:21.369Z,3.68
2017-06-02T11:30:50.373Z,3.40
2017-06-02T11:33:19.241Z,3.86
2017-06-02T11:35:47.335Z,3.78
2017-06-02T11:38:16.229Z,4.16
2017-06-02T11:40:45.089Z,4.30
2017-06-02T11:43:13.186Z,4.00
2017-06-02T11:45:49.610Z,3.90
2017-06-02T11:48:18.471Z,3.90
2017-06-02T11:50:47.326Z,4.04
2017-06-02T11:53:16.316Z,4.32
2017-06-02T11:55:45.153Z,3.90
2017-06-02T11:58:17.025Z,3.74
2017-06-02T12:00:45.881Z,3.98
2017-06-02T12:03:14.729Z,3.84
2017-06-02T12:05:43.615Z,3.90
2017-06-02T12:08:12.469Z,3.94
2017-06-02T12:10:41.345Z,3.76
2017-06-02T12:13:10.357Z,4.14
